Impacts TAF Board
For situational awareness. Not to be used for flight planning purposes.
IDs:

KMSY - New Orleans/Armstron, LA, US

Issued at 1738 UTC 23 Jan 2019
Updated at 1821 UTC 23 Jan 2019
Potential Impact None Slight Moderate High
Time<<24/07Z 24/08Z 24/09Z 24/10Z 24/11Z 24/12Z 24/13Z 24/14Z 24/15Z 24/16Z 24/17Z 24/18Z 24/19Z>>
Type PRVL PRVL PRVL PRVL PRVL PRVL PRVL PRVL PRVL PRVL PRVL PRVL PRVL
VIS >6 >6 >6 >6 >6 >6 >6 >6 >6 >6 >6 >6 >6
CIG 25 25 25 -- -- -- -- -- -- -- -- -- --
Cover OVC OVC OVC SCT SCT SCT SCT SCT SCT SCT SCT SCT SCT
FltCat MVFR MVFR MVFR VFR VFR VFR VFR VFR VFR VFR VFR VFR VFR
WX -- -- -- -- -- -- -- -- -- -- -- -- --
WDir 320 320 320 340 340 340 340 340 340 340 340 340 340
WSpd 15 15 15 11 11 11 11 11 11 11 11 11 11
WGst 21 21 21 -- -- -- -- -- -- -- -- -- --
Raw TAF
KMSY 231738Z 2318/2424 20015G23KT 5SM -SHRA SCT025 OVC035
  TEMPO 2318/2320 30017G23KT 1/2SM +TSRA BKN020CB
  FM232000 30018G26KT 5SM -SHRA BKN015
  FM240130 32016G23KT P6SM OVC018
  FM240500 32015G21KT P6SM BKN025 OVC050
  FM241000 34011KT P6SM SCT250


METAR Board
Radar Display
Forecast Discussion
For situational awareness. Not to be used for flight planning purposes.